sensor_id;sensor_type;location;lat;lon;timestamp;temperature;humidity
21672;DHT22;10997;52.242;8.168;2023-07-29T00:04:21;19.10;99.90
21672;DHT22;10997;52.242;8.168;2023-07-29T00:09:21;19.10;99.90
21672;DHT22;10997;52.242;8.168;2023-07-29T00:14:22;19.10;99.90
21672;DHT22;10997;52.242;8.168;2023-07-29T00:19:23;19.10;99.90
21672;DHT22;10997;52.242;8.168;2023-07-29T00:24:24;19.10;99.90
21672;DHT22;10997;52.242;8.168;2023-07-29T00:29:24;19.20;99.90
21672;DHT22;10997;52.242;8.168;2023-07-29T00:34:25;19.20;99.90
21672;DHT22;10997;52.242;8.168;2023-07-29T00:39:25;19.20;99.90
21672;DHT22;10997;52.242;8.168;2023-07-29T00:44:26;19.20;99.90
21672;DHT22;10997;52.242;8.168;2023-07-29T00:49:26;19.20;99.90
21672;DHT22;10997;52.242;8.168;2023-07-29T00:54:27;19.20;99.90
21672;DHT22;10997;52.242;8.168;2023-07-29T00:59:27;19.20;99.90
21672;DHT22;10997;52.242;8.168;2023-07-29T01:04:31;19.20;99.90
21672;DHT22;10997;52.242;8.168;2023-07-29T01:09:51;19.10;99.90
21672;DHT22;10997;52.242;8.168;2023-07-29T01:20:16;19.10;99.90
21672;DHT22;10997;52.242;8.168;2023-07-29T01:25:17;19.10;99.90
21672;DHT22;10997;52.242;8.168;2023-07-29T01:30:20;19.00;99.90
21672;DHT22;10997;52.242;8.168;2023-07-29T01:35:29;19.00;99.90
21672;DHT22;10997;52.242;8.168;2023-07-29T01:40:32;18.90;99.90
21672;DHT22;10997;52.242;8.168;2023-07-29T01:45:33;18.80;99.90
21672;DHT22;10997;52.242;8.168;2023-07-29T01:50:38;18.70;99.90
21672;DHT22;10997;52.242;8.168;2023-07-29T01:55:39;18.60;99.90
21672;DHT22;10997;52.242;8.168;2023-07-29T02:00:39;18.60;99.90
21672;DHT22;10997;52.242;8.168;2023-07-29T02:05:40;18.50;99.90
21672;DHT22;10997;52.242;8.168;2023-07-29T02:10:42;18.40;99.90
21672;DHT22;10997;52.242;8.168;2023-07-29T02:15:45;18.40;99.90
21672;DHT22;10997;52.242;8.168;2023-07-29T02:20:46;18.40;99.90
21672;DHT22;10997;52.242;8.168;2023-07-29T02:25:50;18.40;99.90
21672;DHT22;10997;52.242;8.168;2023-07-29T02:31:15;18.30;99.90
21672;DHT22;10997;52.242;8.168;2023-07-29T02:36:17;18.30;99.90
21672;DHT22;10997;52.242;8.168;2023-07-29T02:41:17;18.30;99.90
21672;DHT22;10997;52.242;8.168;2023-07-29T02:46:19;18.30;99.90
21672;DHT22;10997;52.242;8.168;2023-07-29T02:51:20;18.30;99.90
21672;DHT22;10997;52.242;8.168;2023-07-29T02:56:20;18.20;99.90
21672;DHT22;10997;52.242;8.168;2023-07-29T03:01:21;18.30;99.90
21672;DHT22;10997;52.242;8.168;2023-07-29T03:06:22;18.30;99.90
21672;DHT22;10997;52.242;8.168;2023-07-29T03:11:22;18.40;99.90
21672;DHT22;10997;52.242;8.168;2023-07-29T03:16:23;18.40;99.90
21672;DHT22;10997;52.242;8.168;2023-07-29T03:21:24;18.40;99.90
21672;DHT22;10997;52.242;8.168;2023-07-29T03:26:24;18.40;99.90
21672;DHT22;10997;52.242;8.168;2023-07-29T03:31:25;18.40;99.90
21672;DHT22;10997;52.242;8.168;2023-07-29T03:36:26;18.40;99.90
21672;DHT22;10997;52.242;8.168;2023-07-29T03:41:26;18.40;99.90
21672;DHT22;10997;52.242;8.168;2023-07-29T03:46:27;18.40;99.90
21672;DHT22;10997;52.242;8.168;2023-07-29T03:51:27;18.50;99.90
21672;DHT22;10997;52.242;8.168;2023-07-29T03:56:28;18.50;99.90
21672;DHT22;10997;52.242;8.168;2023-07-29T04:01:29;18.60;99.90
21672;DHT22;10997;52.242;8.168;2023-07-29T04:06:29;18.60;99.90
21672;DHT22;10997;52.242;8.168;2023-07-29T04:11:30;18.70;99.90
21672;DHT22;10997;52.242;8.168;2023-07-29T04:16:30;18.70;99.90
21672;DHT22;10997;52.242;8.168;2023-07-29T04:21:32;18.70;99.90
21672;DHT22;10997;52.242;8.168;2023-07-29T04:26:32;18.80;99.90
21672;DHT22;10997;52.242;8.168;2023-07-29T04:31:33;18.80;99.90
21672;DHT22;10997;52.242;8.168;2023-07-29T04:36:33;18.90;99.90
21672;DHT22;10997;52.242;8.168;2023-07-29T04:41:34;18.90;99.90
21672;DHT22;10997;52.242;8.168;2023-07-29T04:46:35;18.90;99.90
21672;DHT22;10997;52.242;8.168;2023-07-29T04:51:36;19.00;99.90
21672;DHT22;10997;52.242;8.168;2023-07-29T04:56:37;19.00;99.90
21672;DHT22;10997;52.242;8.168;2023-07-29T05:01:38;19.00;99.90
21672;DHT22;10997;52.242;8.168;2023-07-29T05:06:39;19.10;99.90
21672;DHT22;10997;52.242;8.168;2023-07-29T05:11:39;19.10;99.90
21672;DHT22;10997;52.242;8.168;2023-07-29T05:16:40;19.10;99.90
21672;DHT22;10997;52.242;8.168;2023-07-29T05:21:40;19.20;99.90
21672;DHT22;10997;52.242;8.168;2023-07-29T05:26:41;19.20;99.90
21672;DHT22;10997;52.242;8.168;2023-07-29T05:31:43;19.30;99.90
21672;DHT22;10997;52.242;8.168;2023-07-29T05:36:44;19.40;99.90
21672;DHT22;10997;52.242;8.168;2023-07-29T05:41:44;19.50;99.90
21672;DHT22;10997;52.242;8.168;2023-07-29T05:46:46;19.60;99.90
21672;DHT22;10997;52.242;8.168;2023-07-29T05:51:46;19.70;99.90
21672;DHT22;10997;52.242;8.168;2023-07-29T05:56:47;19.70;99.90
21672;DHT22;10997;52.242;8.168;2023-07-29T06:01:48;19.70;99.90
21672;DHT22;10997;52.242;8.168;2023-07-29T06:06:48;19.70;99.90
21672;DHT22;10997;52.242;8.168;2023-07-29T06:11:49;19.70;99.90
21672;DHT22;10997;52.242;8.168;2023-07-29T06:16:49;19.60;99.90
21672;DHT22;10997;52.242;8.168;2023-07-29T06:21:50;19.70;99.90
21672;DHT22;10997;52.242;8.168;2023-07-29T06:26:50;19.80;99.90
21672;DHT22;10997;52.242;8.168;2023-07-29T06:31:51;20.10;99.90
21672;DHT22;10997;52.242;8.168;2023-07-29T06:36:51;20.20;99.90
21672;DHT22;10997;52.242;8.168;2023-07-29T06:41:52;20.30;99.90
21672;DHT22;10997;52.242;8.168;2023-07-29T06:46:53;20.50;99.90
21672;DHT22;10997;52.242;8.168;2023-07-29T06:51:54;20.50;99.90
21672;DHT22;10997;52.242;8.168;2023-07-29T06:56:55;20.50;99.90
21672;DHT22;10997;52.242;8.168;2023-07-29T07:01:55;20.30;99.90
21672;DHT22;10997;52.242;8.168;2023-07-29T07:06:56;20.20;99.90
21672;DHT22;10997;52.242;8.168;2023-07-29T07:11:56;20.20;99.90
21672;DHT22;10997;52.242;8.168;2023-07-29T07:16:57;20.10;99.90
21672;DHT22;10997;52.242;8.168;2023-07-29T07:21:57;20.40;99.90
21672;DHT22;10997;52.242;8.168;2023-07-29T07:26:58;20.60;99.90
21672;DHT22;10997;52.242;8.168;2023-07-29T07:31:59;20.80;99.90
21672;DHT22;10997;52.242;8.168;2023-07-29T07:36:59;21.00;99.90
21672;DHT22;10997;52.242;8.168;2023-07-29T07:42:00;21.30;99.90
21672;DHT22;10997;52.242;8.168;2023-07-29T07:47:01;21.50;99.90
21672;DHT22;10997;52.242;8.168;2023-07-29T07:52:02;21.60;99.90
21672;DHT22;10997;52.242;8.168;2023-07-29T07:57:02;21.00;99.90
21672;DHT22;10997;52.242;8.168;2023-07-29T08:02:03;20.20;99.90
21672;DHT22;10997;52.242;8.168;2023-07-29T08:07:04;19.70;99.90
21672;DHT22;10997;52.242;8.168;2023-07-29T08:12:05;19.80;99.90
21672;DHT22;10997;52.242;8.168;2023-07-29T08:17:06;19.90;99.90
21672;DHT22;10997;52.242;8.168;2023-07-29T08:22:07;20.20;99.90
21672;DHT22;10997;52.242;8.168;2023-07-29T08:27:07;20.40;99.90
21672;DHT22;10997;52.242;8.168;2023-07-29T08:32:08;20.40;99.90
21672;DHT22;10997;52.242;8.168;2023-07-29T08:37:10;20.50;99.90
21672;DHT22;10997;52.242;8.168;2023-07-29T08:42:11;20.60;99.90
21672;DHT22;10997;52.242;8.168;2023-07-29T08:47:12;20.70;99.90
21672;DHT22;10997;52.242;8.168;2023-07-29T08:52:17;20.80;99.90
21672;DHT22;10997;52.242;8.168;2023-07-29T08:57:20;20.90;99.90
21672;DHT22;10997;52.242;8.168;2023-07-29T09:02:22;21.30;99.90
21672;DHT22;10997;52.242;8.168;2023-07-29T09:07:22;21.30;99.90
21672;DHT22;10997;52.242;8.168;2023-07-29T09:12:23;21.20;99.90
21672;DHT22;10997;52.242;8.168;2023-07-29T09:17:24;21.00;99.90
21672;DHT22;10997;52.242;8.168;2023-07-29T09:22:27;21.30;99.90
21672;DHT22;10997;52.242;8.168;2023-07-29T09:27:28;21.40;99.90
21672;DHT22;10997;52.242;8.168;2023-07-29T09:32:31;21.50;99.90
21672;DHT22;10997;52.242;8.168;2023-07-29T09:37:32;21.90;99.90
21672;DHT22;10997;52.242;8.168;2023-07-29T09:42:33;22.00;99.90
21672;DHT22;10997;52.242;8.168;2023-07-29T09:47:34;21.90;99.90
21672;DHT22;10997;52.242;8.168;2023-07-29T09:52:34;22.00;99.90
21672;DHT22;10997;52.242;8.168;2023-07-29T09:57:35;22.60;99.90
21672;DHT22;10997;52.242;8.168;2023-07-29T10:02:40;22.50;99.90
21672;DHT22;10997;52.242;8.168;2023-07-29T10:07:41;22.60;99.90
21672;DHT22;10997;52.242;8.168;2023-07-29T10:12:41;22.50;99.90
21672;DHT22;10997;52.242;8.168;2023-07-29T10:17:43;22.40;99.90
21672;DHT22;10997;52.242;8.168;2023-07-29T10:22:47;22.60;99.90
21672;DHT22;10997;52.242;8.168;2023-07-29T10:27:52;22.80;99.90
21672;DHT22;10997;52.242;8.168;2023-07-29T10:32:54;23.10;99.90
21672;DHT22;10997;52.242;8.168;2023-07-29T10:37:56;23.30;99.90
21672;DHT22;10997;52.242;8.168;2023-07-29T10:43:02;23.60;99.90
21672;DHT22;10997;52.242;8.168;2023-07-29T10:53:33;23.20;99.90
21672;DHT22;10997;52.242;8.168;2023-07-29T10:58:34;23.20;99.90
21672;DHT22;10997;52.242;8.168;2023-07-29T11:03:34;23.20;99.90
21672;DHT22;10997;52.242;8.168;2023-07-29T11:08:35;23.50;99.90
21672;DHT22;10997;52.242;8.168;2023-07-29T11:13:37;23.70;99.90
21672;DHT22;10997;52.242;8.168;2023-07-29T11:18:38;23.80;99.90
21672;DHT22;10997;52.242;8.168;2023-07-29T11:23:40;23.80;99.90
21672;DHT22;10997;52.242;8.168;2023-07-29T11:28:40;23.80;99.90
21672;DHT22;10997;52.242;8.168;2023-07-29T11:33:41;23.50;99.90
21672;DHT22;10997;52.242;8.168;2023-07-29T11:38:41;23.60;99.90
21672;DHT22;10997;52.242;8.168;2023-07-29T11:43:43;23.80;99.90
21672;DHT22;10997;52.242;8.168;2023-07-29T11:48:44;23.70;99.90
21672;DHT22;10997;52.242;8.168;2023-07-29T11:53:45;23.30;99.90
21672;DHT22;10997;52.242;8.168;2023-07-29T11:58:46;24.00;99.90
21672;DHT22;10997;52.242;8.168;2023-07-29T12:03:46;24.40;99.90
21672;DHT22;10997;52.242;8.168;2023-07-29T12:08:47;24.10;99.90
21672;DHT22;10997;52.242;8.168;2023-07-29T12:13:48;23.80;99.90
21672;DHT22;10997;52.242;8.168;2023-07-29T12:18:50;24.00;99.90
21672;DHT22;10997;52.242;8.168;2023-07-29T12:23:51;23.60;99.90
21672;DHT22;10997;52.242;8.168;2023-07-29T12:28:51;23.10;99.90
21672;DHT22;10997;52.242;8.168;2023-07-29T12:33:56;22.90;99.90
21672;DHT22;10997;52.242;8.168;2023-07-29T12:38:59;23.20;99.90
21672;DHT22;10997;52.242;8.168;2023-07-29T12:43:59;23.70;99.90
21672;DHT22;10997;52.242;8.168;2023-07-29T12:49:00;24.10;99.90
21672;DHT22;10997;52.242;8.168;2023-07-29T12:54:01;23.70;99.90
21672;DHT22;10997;52.242;8.168;2023-07-29T12:59:02;23.60;99.90
21672;DHT22;10997;52.242;8.168;2023-07-29T13:04:03;24.10;99.90
21672;DHT22;10997;52.242;8.168;2023-07-29T13:09:05;24.90;99.90
21672;DHT22;10997;52.242;8.168;2023-07-29T13:14:06;24.50;99.90
21672;DHT22;10997;52.242;8.168;2023-07-29T13:19:07;24.20;99.90
21672;DHT22;10997;52.242;8.168;2023-07-29T13:24:07;23.80;99.90
21672;DHT22;10997;52.242;8.168;2023-07-29T13:29:08;23.60;99.90
21672;DHT22;10997;52.242;8.168;2023-07-29T13:34:08;23.70;99.90
21672;DHT22;10997;52.242;8.168;2023-07-29T13:39:09;24.30;99.90
21672;DHT22;10997;52.242;8.168;2023-07-29T13:44:09;24.50;99.90
21672;DHT22;10997;52.242;8.168;2023-07-29T13:49:10;23.80;99.90
21672;DHT22;10997;52.242;8.168;2023-07-29T13:54:11;24.50;99.90
21672;DHT22;10997;52.242;8.168;2023-07-29T13:59:12;24.60;99.90
21672;DHT22;10997;52.242;8.168;2023-07-29T14:04:12;24.60;99.90
21672;DHT22;10997;52.242;8.168;2023-07-29T14:09:13;24.00;99.90
21672;DHT22;10997;52.242;8.168;2023-07-29T14:14:14;23.90;99.90
21672;DHT22;10997;52.242;8.168;2023-07-29T14:19:15;23.80;99.90
21672;DHT22;10997;52.242;8.168;2023-07-29T14:24:15;23.50;99.90
21672;DHT22;10997;52.242;8.168;2023-07-29T14:29:17;23.40;99.90
21672;DHT22;10997;52.242;8.168;2023-07-29T14:34:18;23.30;99.90
21672;DHT22;10997;52.242;8.168;2023-07-29T14:39:19;23.10;99.90
21672;DHT22;10997;52.242;8.168;2023-07-29T14:44:19;22.90;99.90
21672;DHT22;10997;52.242;8.168;2023-07-29T14:49:20;22.80;99.90
21672;DHT22;10997;52.242;8.168;2023-07-29T14:54:20;22.60;99.90
21672;DHT22;10997;52.242;8.168;2023-07-29T14:59:21;22.50;99.90
21672;DHT22;10997;52.242;8.168;2023-07-29T15:04:21;22.10;99.90
21672;DHT22;10997;52.242;8.168;2023-07-29T15:09:22;21.90;99.90
21672;DHT22;10997;52.242;8.168;2023-07-29T15:14:23;22.20;99.90
21672;DHT22;10997;52.242;8.168;2023-07-29T15:19:23;22.80;99.90
21672;DHT22;10997;52.242;8.168;2023-07-29T15:24:25;23.00;99.90
21672;DHT22;10997;52.242;8.168;2023-07-29T15:29:26;22.70;99.90
21672;DHT22;10997;52.242;8.168;2023-07-29T15:34:26;23.10;99.90
21672;DHT22;10997;52.242;8.168;2023-07-29T15:39:31;23.30;99.90
21672;DHT22;10997;52.242;8.168;2023-07-29T15:44:32;23.30;99.90
21672;DHT22;10997;52.242;8.168;2023-07-29T15:49:32;23.50;99.90
21672;DHT22;10997;52.242;8.168;2023-07-29T15:54:33;23.30;99.90
21672;DHT22;10997;52.242;8.168;2023-07-29T15:59:34;23.20;99.90
21672;DHT22;10997;52.242;8.168;2023-07-29T16:04:34;23.10;99.90
21672;DHT22;10997;52.242;8.168;2023-07-29T16:09:35;23.50;99.90
21672;DHT22;10997;52.242;8.168;2023-07-29T16:14:36;23.60;99.90
21672;DHT22;10997;52.242;8.168;2023-07-29T16:19:52;23.50;99.90
21672;DHT22;10997;52.242;8.168;2023-07-29T16:24:53;23.70;99.90
21672;DHT22;10997;52.242;8.168;2023-07-29T16:29:54;23.60;99.90
21672;DHT22;10997;52.242;8.168;2023-07-29T16:34:54;23.60;99.90
21672;DHT22;10997;52.242;8.168;2023-07-29T16:39:55;23.80;99.90
21672;DHT22;10997;52.242;8.168;2023-07-29T16:44:56;24.00;99.90
21672;DHT22;10997;52.242;8.168;2023-07-29T16:49:56;23.60;99.90
21672;DHT22;10997;52.242;8.168;2023-07-29T16:54:59;23.80;99.90
21672;DHT22;10997;52.242;8.168;2023-07-29T17:00:00;23.70;99.90
21672;DHT22;10997;52.242;8.168;2023-07-29T17:05:00;23.80;99.90
21672;DHT22;10997;52.242;8.168;2023-07-29T17:10:04;23.90;99.90
21672;DHT22;10997;52.242;8.168;2023-07-29T17:15:05;23.60;99.90
21672;DHT22;10997;52.242;8.168;2023-07-29T17:20:08;23.50;99.90
21672;DHT22;10997;52.242;8.168;2023-07-29T17:25:09;23.40;99.90
21672;DHT22;10997;52.242;8.168;2023-07-29T17:30:11;23.20;99.90
21672;DHT22;10997;52.242;8.168;2023-07-29T17:35:12;23.50;99.90
21672;DHT22;10997;52.242;8.168;2023-07-29T17:40:14;23.60;99.90
21672;DHT22;10997;52.242;8.168;2023-07-29T17:45:14;23.80;99.90
21672;DHT22;10997;52.242;8.168;2023-07-29T17:50:15;23.90;99.90
21672;DHT22;10997;52.242;8.168;2023-07-29T17:55:16;23.30;99.90
21672;DHT22;10997;52.242;8.168;2023-07-29T18:00:16;23.20;99.90
21672;DHT22;10997;52.242;8.168;2023-07-29T18:05:18;23.00;99.90
21672;DHT22;10997;52.242;8.168;2023-07-29T18:10:18;22.90;99.90
21672;DHT22;10997;52.242;8.168;2023-07-29T18:15:19;22.60;99.90
21672;DHT22;10997;52.242;8.168;2023-07-29T18:20:20;22.60;99.90
21672;DHT22;10997;52.242;8.168;2023-07-29T18:25:21;22.50;99.90
21672;DHT22;10997;52.242;8.168;2023-07-29T18:30:21;22.50;99.90
21672;DHT22;10997;52.242;8.168;2023-07-29T18:35:22;22.30;99.90
21672;DHT22;10997;52.242;8.168;2023-07-29T18:40:22;22.00;99.90
21672;DHT22;10997;52.242;8.168;2023-07-29T18:45:23;22.00;99.90
21672;DHT22;10997;52.242;8.168;2023-07-29T18:50:24;21.80;99.90
21672;DHT22;10997;52.242;8.168;2023-07-29T18:55:25;21.60;99.90
21672;DHT22;10997;52.242;8.168;2023-07-29T19:00:26;21.60;99.90
21672;DHT22;10997;52.242;8.168;2023-07-29T19:05:27;21.30;99.90
21672;DHT22;10997;52.242;8.168;2023-07-29T19:10:28;21.30;99.90
21672;DHT22;10997;52.242;8.168;2023-07-29T19:15:28;21.20;99.90
21672;DHT22;10997;52.242;8.168;2023-07-29T19:20:29;21.20;99.90
21672;DHT22;10997;52.242;8.168;2023-07-29T19:25:30;21.00;99.90
21672;DHT22;10997;52.242;8.168;2023-07-29T19:30:31;20.80;99.90
21672;DHT22;10997;52.242;8.168;2023-07-29T19:35:31;20.80;99.90
21672;DHT22;10997;52.242;8.168;2023-07-29T19:40:34;20.50;99.90
21672;DHT22;10997;52.242;8.168;2023-07-29T19:45:35;20.30;99.90
21672;DHT22;10997;52.242;8.168;2023-07-29T19:50:35;20.20;99.90
21672;DHT22;10997;52.242;8.168;2023-07-29T19:55:36;20.10;99.90
21672;DHT22;10997;52.242;8.168;2023-07-29T20:00:37;20.00;99.90
21672;DHT22;10997;52.242;8.168;2023-07-29T20:05:40;20.00;99.90
21672;DHT22;10997;52.242;8.168;2023-07-29T20:10:40;19.80;99.90
21672;DHT22;10997;52.242;8.168;2023-07-29T20:15:41;19.50;99.90
21672;DHT22;10997;52.242;8.168;2023-07-29T20:20:42;19.40;99.90
21672;DHT22;10997;52.242;8.168;2023-07-29T20:25:42;19.20;99.90
21672;DHT22;10997;52.242;8.168;2023-07-29T20:30:43;19.10;99.90
21672;DHT22;10997;52.242;8.168;2023-07-29T20:35:44;19.10;99.90
21672;DHT22;10997;52.242;8.168;2023-07-29T20:40:53;19.00;99.90
21672;DHT22;10997;52.242;8.168;2023-07-29T20:45:57;19.00;99.90
21672;DHT22;10997;52.242;8.168;2023-07-29T20:50:58;19.00;99.90
21672;DHT22;10997;52.242;8.168;2023-07-29T20:55:58;19.00;99.90
21672;DHT22;10997;52.242;8.168;2023-07-29T21:01:01;18.90;99.90
21672;DHT22;10997;52.242;8.168;2023-07-29T21:06:03;18.80;99.90
21672;DHT22;10997;52.242;8.168;2023-07-29T21:11:04;18.80;99.90
21672;DHT22;10997;52.242;8.168;2023-07-29T21:16:05;18.70;99.90
21672;DHT22;10997;52.242;8.168;2023-07-29T21:21:06;18.70;99.90
21672;DHT22;10997;52.242;8.168;2023-07-29T21:26:06;18.60;99.90
21672;DHT22;10997;52.242;8.168;2023-07-29T21:31:07;18.60;99.90
21672;DHT22;10997;52.242;8.168;2023-07-29T21:36:08;18.50;99.90
21672;DHT22;10997;52.242;8.168;2023-07-29T21:41:08;18.40;99.90
21672;DHT22;10997;52.242;8.168;2023-07-29T21:46:09;18.30;99.90
21672;DHT22;10997;52.242;8.168;2023-07-29T21:51:10;18.30;99.90
21672;DHT22;10997;52.242;8.168;2023-07-29T21:56:10;18.30;99.90
21672;DHT22;10997;52.242;8.168;2023-07-29T22:01:11;18.30;99.90
21672;DHT22;10997;52.242;8.168;2023-07-29T22:06:11;18.30;99.90
21672;DHT22;10997;52.242;8.168;2023-07-29T22:11:12;18.30;99.90
21672;DHT22;10997;52.242;8.168;2023-07-29T22:16:13;18.30;99.90
21672;DHT22;10997;52.242;8.168;2023-07-29T22:21:13;18.30;99.90
21672;DHT22;10997;52.242;8.168;2023-07-29T22:26:14;18.40;99.90
21672;DHT22;10997;52.242;8.168;2023-07-29T22:31:14;18.40;99.90
21672;DHT22;10997;52.242;8.168;2023-07-29T22:36:15;18.40;99.90
21672;DHT22;10997;52.242;8.168;2023-07-29T22:41:16;18.30;99.90
21672;DHT22;10997;52.242;8.168;2023-07-29T22:46:16;18.30;99.90
21672;DHT22;10997;52.242;8.168;2023-07-29T22:51:17;18.30;99.90
21672;DHT22;10997;52.242;8.168;2023-07-29T22:56:18;18.30;99.90
21672;DHT22;10997;52.242;8.168;2023-07-29T23:01:18;18.30;99.90
21672;DHT22;10997;52.242;8.168;2023-07-29T23:06:19;18.20;99.90
21672;DHT22;10997;52.242;8.168;2023-07-29T23:11:19;18.10;99.90
21672;DHT22;10997;52.242;8.168;2023-07-29T23:16:20;17.90;99.90
21672;DHT22;10997;52.242;8.168;2023-07-29T23:21:21;17.70;99.90
21672;DHT22;10997;52.242;8.168;2023-07-29T23:26:21;17.60;99.90
21672;DHT22;10997;52.242;8.168;2023-07-29T23:31:22;17.50;99.90
21672;DHT22;10997;52.242;8.168;2023-07-29T23:36:22;17.30;99.90
21672;DHT22;10997;52.242;8.168;2023-07-29T23:41:23;17.20;99.90
21672;DHT22;10997;52.242;8.168;2023-07-29T23:46:23;17.10;99.90
21672;DHT22;10997;52.242;8.168;2023-07-29T23:51:24;17.00;99.90
21672;DHT22;10997;52.242;8.168;2023-07-29T23:56:24;16.90;99.90
